高知空港の過去48時間の天気

高知空港 (Kochi)

現在時刻: 9/23 06:25 JST (9/22 21:25 UTC) 以下の時間は現地時間です。

過去48時間のMETAR気象情報
時間 風向 風速(m/s) 視程 気温(℃) 湿度(%) 気圧(hPa) 天気現象
22 20:37 南南東 13 1000m 27 84 1005 強いしゅう雨 もや
22 20:00 南東 12 8000m 27 89 1005 弱いしゅう雨
22 19:00 南東 14 5000m 27 89 1005 弱いしゅう雨 もや
22 18:43 南東 12 5000m 27 89 1005 弱いしゅう雨 もや
22 18:26 南南東 9 2000m 27 89 1005 しゅう雨 もや
22 18:00 南東 11 2000m 27 89 1005 しゅう雨 もや
22 17:00 東南東 10 10km以上 27 89 1006 周辺でしゅう雨
22 16:00 東南東 10 10km以上 27 89 1006 周辺でしゅう雨
22 15:00 南東 10 10km以上 28 79 1007 周辺でしゅう雨
22 14:00 南東 10 10km以上 28 79 1008
22 13:00 南東 11 10km以上 28 79 1009
22 12:00 南東 12 10km以上 28 79 1009 周辺でしゅう雨
22 11:00 南東 10 10km以上 27 84 1010
22 10:00 南東 12 7000m 27 84 1011 弱いしゅう雨
22 09:00 東南東 8 10km以上 26 89 1012
22 08:00 南東 12 8000m 26 84 1012 弱いしゅう雨
22 07:32 南南東 6 5000m 25 89 1011 弱いしゅう雨 もや
22 07:22 東南東 7 5000m 24 94 1012 しゅう雨 もや
22 07:00 南東 9 2500m 25 89 1012 強いしゅう雨 もや
22 06:33 南東 3 5000m 24 94 1012 弱いしゅう雨 もや
22 06:10 南東 6 2500m 25 89 1012 強いしゅう雨 もや
RJOK 221137Z 16026G38KT 1000 R32/0350VP1800D +SHRA BR FEW008 SCT020 FEW020CB BKN030 27/24 Q1005 RMK 1ST008 4CU020 2CB020 5CU030 A2969 CB OHD MOV N RI++
RJOK 221100Z 14023G35KT 8000 -SHRA FEW010 SCT020 FEW025CB BKN035 27/25 Q1005
RJOK 221000Z 14027G38KT 5000 -SHRA BR FEW008 SCT020 FEW025CB BKN040 27/25 Q1005
RJOK 220943Z 13024KT 5000 -SHRA BR FEW006 SCT020 FEW025CB BKN030 27/25 Q1005 RMK 1ST006 3CU020 1CB025 5CU030 A2969 CB 15KM NW MOV N
RJOK 220926Z 16018G30KT 130V220 2000 R32/0400VP1800U SHRA BR FEW006 SCT015 BKN020 FEW025CB 27/25 Q1005 RMK 1ST006 3CU015 6CU020 1CB025 A2970 CB 10KM N MOV N
RJOK 220900Z 13021KT 2000 R32/0750VP1800U SHRA BR FEW008 SCT015 BKN020 FEW020CB 27/25 Q1005
RJOK 220800Z 12019KT 9999 VCSH FEW010 SCT015 BKN020 27/25 Q1006
RJOK 220700Z 12020KT 9999 VCSH FEW008 SCT015 BKN090 27/25 Q1006
RJOK 220600Z 13020KT 9999 VCSH FEW008 SCT015 BKN150 28/24 Q1007
RJOK 220500Z 13020KT 9999 FEW008 SCT015 BKN150 28/24 Q1008
RJOK 220400Z 13022KT 9999 FEW008 SCT015 BKN060 28/24 Q1009
RJOK 220300Z 13023KT 9999 VCSH FEW008 SCT015 BKN090 28/24 Q1009
RJOK 220200Z 13019KT 9999 FEW008 SCT015 BKN090 27/24 Q1010
RJOK 220100Z 13023KT 7000 -SHRA FEW005 SCT015 BKN025 27/24 Q1011
RJOK 220000Z 12016KT 9999 FEW006 SCT020 FEW025CB BKN035 26/24 Q1012
RJOK 212300Z 14023KT 8000 -SHRA FEW006 SCT010 BKN020 FEW025CB 26/23 Q1012
RJOK 212232Z 15012KT 5000 R32/1200VP1800U -SHRA BR FEW002 SCT008 BKN010 FEW025CB 25/23 Q1011 RMK 1ST002 3ST008 5ST010 1CB025 A2988 CB 10KM NE-SE MOV N
RJOK 212222Z 12013KT 5000 R32/0650VP1800U SHRA BR FEW003 SCT008 BKN015 FEW025CB 24/23 Q1012 RMK 1ST003 3ST008 5CU015 1CB025 A2989 CB 10KM E MOV N RI++
RJOK 212200Z 14017KT 2500 R32/0700V1100D +SHRA BR FEW003 SCT010 BKN020 FEW025CB 25/23 Q1012
RJOK 212133Z 14006G20KT 5000 -SHRA BR FEW003 SCT005 BKN010 FEW020CB 24/23 Q1012 RMK 1ST003 3ST005 5ST010 2CB020 A2988 CB 5KM N MOV N
RJOK 212110Z 14012KT 2500 R32/0800VP1800D +SHRA BR FEW005 SCT015 FEW020CB BKN025 25/23 Q1012 RMK 1ST005 3CU015 2CB020 5CU025 A2989 CB OHD MOV N RI++